Impacts METAR Board
IDs:

KPIT - Pittsburgh Intl, PA, US

Updated at: 2000 UTC 15 Jun 2019
Potential Impact None Slight Moderate High
Time 15/08Z 15/09Z 15/10Z 15/11Z 15/12Z 15/13Z 15/14Z 15/15Z 15/16Z 15/17Z 15/18Z 15/19Z 15/20Z
Temp55 55 56 57 60 60 62 66 69 69 71 74 73
Dewpt47 47 48 48 48 51 50 52 50 52 54 57 58
Altim30.05 30.06 30.06 30.07 30.08 30.07 30.05 30.03 30.02 30.01 30.00 29.98 29.99
VIS10 10 10 10 10 10 10 10 10 10 10 10 10
CIG230 170 140 110 100 85 90 90 90 95 100 100 90
CoverBKNOVCOVCOVCOVCOVCOVCOVCOVCBKNBKNBKNOVC
FltCatVFRVFRVFRVFRVFRVFRVFRVFRVFRVFRVFRVFRVFR
WX--------------------------
WDir160170180170190170180180220240230210220
WSpd5 3 4 4 5 4 6 9 10 8 9 8 8
WGst-- -- -- -- -- -- -- 14 -- -- 18 -- --
Raw hourly METARs
KPIT 150751Z 16005KT 10SM SCT160 BKN230 13/08 A3005 RMK AO2 SLP181 T01280083
KPIT 150851Z 17003KT 10SM BKN170 OVC230 13/08 A3006 RMK AO2 SLP181 T01280083 55006
KPIT 150951Z 18004KT 10SM BKN140 OVC220 13/09 A3006 RMK AO2 SLP184 T01330089
KPIT 151051Z 17004KT 10SM OVC110 14/09 A3007 RMK AO2 SLP187 T01390089
KPIT 151151Z 19005KT 10SM OVC100 16/09 A3008 RMK AO2 SLP188 T01560089 10156 20122 51008
KPIT 151251Z 17004KT 10SM OVC085 16/11 A3007 RMK AO2 RAB30E41 SLP187 P0000 T01560106
KPIT 151351Z 18006KT 10SM FEW075 OVC090 17/10 A3005 RMK AO2 RAB31E40 SLP180 P0000 T01670100
KPIT 151451Z 18009G14KT 10SM BKN090 OVC130 19/11 A3003 RMK AO2 SLP172 BINOVC 60000 T01890111 58017
KPIT 151551Z 22010KT 10SM BKN090 OVC150 21/10 A3002 RMK AO2 SLP169 BINOVC T02060100
KPIT 151651Z 24008KT 10SM FEW035 BKN095 BKN130 21/11 A3001 RMK AO2 SLP167 T02060111
KPIT 151751Z 23009G18KT 10SM FEW035 BKN100 BKN150 22/12 A3000 RMK AO2 SLP161 60000 T02170122 10217 20156 58010
KPIT 151851Z 21008KT 10SM FEW035 BKN100 BKN150 23/14 A2998 RMK AO2 SLP155 T02330139
KPIT 151951Z 22008KT 10SM FEW035 OVC090 23/14 A2999 RMK AO2 SLP159 T02280144



Page loaded:  20:29 UTC  |   01:29 PM Pacific  |   02:29 PM Mountain  |   03:29 PM Central  |   04:29 PM Eastern

 

ADVISORIES

FORECASTS

FORECASTS

OBSERVATIONS

USER TOOLS

ABOUT US